createdAt,value
2017-10-18T00:00:42.970Z,0
2017-10-18T00:01:43.301Z,0
2017-10-18T00:02:43.305Z,0
2017-10-18T00:03:43.276Z,0
2017-10-18T00:04:42.927Z,0
2017-10-18T00:05:43.602Z,0
2017-10-18T00:06:43.959Z,0
2017-10-18T00:07:43.238Z,0
2017-10-18T00:08:43.228Z,0
2017-10-18T00:09:42.877Z,0
2017-10-18T00:10:42.871Z,0
2017-10-18T00:11:43.197Z,0
2017-10-18T00:12:42.862Z,0
2017-10-18T00:13:43.176Z,0
2017-10-18T00:14:42.833Z,0
2017-10-18T00:15:42.816Z,0
2017-10-18T00:16:43.154Z,0
2017-10-18T00:17:43.516Z,0
2017-10-18T00:18:43.480Z,0
2017-10-18T00:19:43.115Z,0
2017-10-18T00:20:42.767Z,0
2017-10-18T00:21:43.096Z,0
2017-10-18T00:22:43.435Z,0
2017-10-18T00:23:43.072Z,0
2017-10-18T00:24:42.729Z,0
2017-10-18T00:25:43.053Z,0
2017-10-18T00:26:42.700Z,0
2017-10-18T00:27:43.032Z,0
2017-10-18T00:28:42.682Z,0
2017-10-18T00:29:43.020Z,0
2017-10-18T00:30:42.997Z,0
2017-10-18T00:31:43.710Z,0
2017-10-18T00:32:42.993Z,0
2017-10-18T00:33:42.639Z,0
2017-10-18T00:34:43.310Z,0
2017-10-18T00:35:42.945Z,0
2017-10-18T00:36:43.279Z,0
2017-10-18T00:37:42.928Z,0
2017-10-18T00:38:42.931Z,0
2017-10-18T00:39:43.247Z,0
2017-10-18T00:40:42.551Z,0
2017-10-18T00:41:42.893Z,0
2017-10-18T00:42:42.872Z,0
2017-10-18T00:43:43.205Z,0
2017-10-18T00:44:42.851Z,0
2017-10-18T00:45:42.846Z,0
2017-10-18T00:46:42.492Z,0
2017-10-18T00:47:42.820Z,0
2017-10-18T00:48:42.811Z,0
2017-10-18T00:49:42.812Z,0
2017-10-18T00:50:43.471Z,0
2017-10-18T00:51:42.775Z,0
2017-10-18T00:52:42.425Z,0
2017-10-18T00:53:43.120Z,0
2017-10-18T00:54:42.771Z,0
2017-10-18T00:55:43.541Z,0
2017-10-18T00:56:42.382Z,0
2017-10-18T00:57:43.055Z,0
2017-10-18T00:58:42.363Z,0
2017-10-18T00:59:43.030Z,0
2017-10-18T01:00:43.029Z,0
2017-10-18T01:01:43.027Z,0
2017-10-18T01:02:42.682Z,0
2017-10-18T01:03:42.306Z,0
2017-10-18T01:04:43.016Z,0
2017-10-18T01:05:42.296Z,0
2017-10-18T01:06:42.300Z,0
2017-10-18T01:07:42.263Z,0
2017-10-18T01:08:42.271Z,0
2017-10-18T01:09:42.922Z,0
2017-10-18T01:10:42.250Z,0
2017-10-18T01:11:42.913Z,0
2017-10-18T01:12:42.890Z,0
2017-10-18T01:13:42.548Z,0
2017-10-18T01:14:42.527Z,0
2017-10-18T01:15:42.857Z,0
2017-10-18T01:16:42.506Z,0
2017-10-18T01:17:42.493Z,0
2017-10-18T01:18:42.503Z,0
2017-10-18T01:19:42.132Z,0
2017-10-18T01:20:42.469Z,0
2017-10-18T01:21:42.114Z,0
2017-10-18T01:22:42.438Z,0
2017-10-18T01:23:42.428Z,0
2017-10-18T01:24:42.417Z,0
2017-10-18T01:25:42.096Z,0
2017-10-18T01:26:42.787Z,0
2017-10-18T01:27:42.404Z,0
2017-10-18T01:28:42.392Z,0
2017-10-18T01:29:42.367Z,0
2017-10-18T01:30:42.368Z,0
2017-10-18T01:31:42.681Z,0
2017-10-18T01:32:42.677Z,0
2017-10-18T01:33:41.990Z,0
2017-10-18T01:34:41.985Z,0
2017-10-18T01:35:42.643Z,0
2017-10-18T01:36:42.303Z,0
2017-10-18T01:37:41.935Z,0
2017-10-18T01:38:41.924Z,0
2017-10-18T01:39:41.914Z,0
2017-10-18T01:40:42.604Z,0
2017-10-18T01:41:41.890Z,0
2017-10-18T01:42:42.558Z,0
2017-10-18T01:43:42.219Z,0
2017-10-18T01:44:41.856Z,0
2017-10-18T01:45:42.188Z,0
2017-10-18T01:46:41.833Z,0
2017-10-18T01:47:42.172Z,0
2017-10-18T01:48:42.155Z,0
2017-10-18T01:49:42.140Z,0
2017-10-18T01:50:42.130Z,0
2017-10-18T01:51:42.125Z,0
2017-10-18T01:52:41.769Z,0
2017-10-18T01:53:42.464Z,0
2017-10-18T01:54:42.088Z,0
2017-10-18T01:55:42.414Z,0
2017-10-18T01:56:41.726Z,0
2017-10-18T01:57:42.054Z,0
2017-10-18T01:58:42.382Z,0
2017-10-18T01:59:42.738Z,0
2017-10-18T02:00:41.683Z,0
2017-10-18T02:01:42.010Z,0
2017-10-18T02:02:41.676Z,0
2017-10-18T02:03:41.654Z,0
2017-10-18T02:04:42.012Z,0
2017-10-18T02:05:41.982Z,0
2017-10-18T02:06:42.298Z,0
2017-10-18T02:07:42.309Z,0
2017-10-18T02:08:41.589Z,0
2017-10-18T02:09:42.270Z,0
2017-10-18T02:10:42.586Z,0
2017-10-18T02:11:41.897Z,0
2017-10-18T02:12:41.886Z,0
2017-10-18T02:13:41.880Z,0
2017-10-18T02:14:41.870Z,0
2017-10-18T02:15:41.849Z,0
2017-10-18T02:16:42.196Z,0
2017-10-18T02:17:41.832Z,0
2017-10-18T02:18:42.166Z,0
2017-10-18T02:19:43.292Z,0
2017-10-18T02:20:41.804Z,0
2017-10-18T02:21:42.152Z,0
2017-10-18T02:22:41.790Z,0
2017-10-18T02:23:41.785Z,0
2017-10-18T02:24:41.755Z,0
2017-10-18T02:25:42.139Z,0
2017-10-18T02:26:41.441Z,0
2017-10-18T02:27:42.759Z,0
2017-10-18T02:28:41.471Z,0
2017-10-18T02:29:41.760Z,0
2017-10-18T02:30:41.350Z,0
2017-10-18T02:31:42.018Z,0
2017-10-18T02:32:41.665Z,0
2017-10-18T02:33:41.651Z,0
2017-10-18T02:34:41.302Z,0
2017-10-18T02:35:41.982Z,0
2017-10-18T02:36:41.277Z,0
2017-10-18T02:37:41.275Z,0
2017-10-18T02:38:41.595Z,0
2017-10-18T02:39:41.940Z,0
2017-10-18T02:40:41.589Z,0
2017-10-18T02:41:41.563Z,0
2017-10-18T02:42:41.897Z,0
2017-10-18T02:43:41.879Z,0
2017-10-18T02:44:41.188Z,0
2017-10-18T02:45:41.879Z,0
2017-10-18T02:46:41.851Z,0
2017-10-18T02:47:41.495Z,0
2017-10-18T02:48:41.496Z,0
2017-10-18T02:49:41.158Z,0
2017-10-18T02:50:41.829Z,0
2017-10-18T02:51:41.467Z,0
2017-10-18T02:52:41.777Z,0
2017-10-18T02:53:41.429Z,0
2017-10-18T02:54:41.431Z,0
2017-10-18T02:55:41.401Z,0
2017-10-18T02:56:41.731Z,0
2017-10-18T02:57:41.741Z,0
2017-10-18T02:58:41.368Z,0
2017-10-18T02:59:41.692Z,0
2017-10-18T03:00:41.701Z,0
2017-10-18T03:01:41.679Z,0
2017-10-18T03:02:41.322Z,0
2017-10-18T03:03:41.321Z,0
2017-10-18T03:04:40.959Z,0
2017-10-18T03:05:41.311Z,0
2017-10-18T03:06:41.315Z,0
2017-10-18T03:07:41.261Z,0
2017-10-18T03:08:41.277Z,0
2017-10-18T03:09:41.284Z,0
2017-10-18T03:10:41.228Z,0
2017-10-18T03:11:41.573Z,0
2017-10-18T03:12:40.868Z,0
2017-10-18T03:13:41.211Z,0
2017-10-18T03:14:41.865Z,0
2017-10-18T03:15:41.510Z,0
2017-10-18T03:16:41.861Z,0
2017-10-18T03:17:41.153Z,0
2017-10-18T03:18:41.482Z,0
2017-10-18T03:19:40.787Z,0
2017-10-18T03:20:41.130Z,0
2017-10-18T03:21:41.101Z,0
2017-10-18T03:22:41.091Z,0
2017-10-18T03:23:40.752Z,0
2017-10-18T03:24:41.068Z,0
2017-10-18T03:25:41.055Z,0
2017-10-18T03:26:41.081Z,0
2017-10-18T03:27:41.034Z,0
2017-10-18T03:28:41.709Z,0
2017-10-18T03:29:41.014Z,0
2017-10-18T03:30:40.666Z,0
2017-10-18T03:31:40.989Z,0
2017-10-18T03:32:41.001Z,0
2017-10-18T03:33:40.964Z,0
2017-10-18T03:34:40.953Z,0
2017-10-18T03:35:40.617Z,0
2017-10-18T03:36:40.932Z,0
2017-10-18T03:37:40.919Z,0
2017-10-18T03:38:40.911Z,0
2017-10-18T03:39:41.234Z,0
2017-10-18T03:40:41.224Z,0
2017-10-18T03:41:40.897Z,0
2017-10-18T03:42:40.884Z,0
2017-10-18T03:43:40.864Z,0
2017-10-18T03:44:40.500Z,0
2017-10-18T03:45:40.831Z,0
2017-10-18T03:46:40.477Z,0
2017-10-18T03:47:41.155Z,0
2017-10-18T03:48:40.792Z,0
2017-10-18T03:49:40.782Z,0
2017-10-18T03:50:40.430Z,0
2017-10-18T03:51:40.775Z,0
2017-10-18T03:52:41.092Z,0
2017-10-18T03:53:40.744Z,0
2017-10-18T03:54:40.729Z,0
2017-10-18T03:55:41.054Z,0
2017-10-18T03:56:40.365Z,0
2017-10-18T03:57:40.349Z,0
2017-10-18T03:58:41.023Z,0
2017-10-18T03:59:40.341Z,0
2017-10-18T04:00:41.017Z,0
2017-10-18T04:01:40.643Z,0
2017-10-18T04:02:40.638Z,0
2017-10-18T04:03:40.282Z,0
2017-10-18T04:04:40.630Z,0
2017-10-18T04:05:40.256Z,0
2017-10-18T04:06:40.603Z,0
2017-10-18T04:07:40.607Z,0
2017-10-18T04:08:40.565Z,0
2017-10-18T04:09:40.891Z,0
2017-10-18T04:10:40.540Z,0
2017-10-18T04:11:40.872Z,0
2017-10-18T04:12:40.180Z,0
2017-10-18T04:13:40.851Z,0
2017-10-18T04:14:40.862Z,0
2017-10-18T04:15:40.486Z,0
2017-10-18T04:16:40.149Z,0
2017-10-18T04:17:40.147Z,0
2017-10-18T04:18:40.110Z,0
2017-10-18T04:19:40.124Z,0
2017-10-18T04:20:40.432Z,0
2017-10-18T04:21:40.089Z,0
2017-10-18T04:22:40.774Z,0
2017-10-18T04:23:40.395Z,0
2017-10-18T04:24:40.398Z,0
2017-10-18T04:25:40.052Z,0
2017-10-18T04:26:40.367Z,0
2017-10-18T04:27:40.362Z,0
2017-10-18T04:28:40.695Z,0
2017-10-18T04:29:39.986Z,0
2017-10-18T04:30:40.682Z,0
2017-10-18T04:31:40.981Z,0
2017-10-18T04:32:40.310Z,0
2017-10-18T04:33:40.622Z,0
2017-10-18T04:34:40.294Z,0
2017-10-18T04:35:40.622Z,0
2017-10-18T04:36:40.254Z,0
2017-10-18T04:37:39.898Z,0
2017-10-18T04:38:40.583Z,0
2017-10-18T04:39:39.873Z,0
2017-10-18T04:40:40.543Z,0
2017-10-18T04:41:40.195Z,0
2017-10-18T04:42:40.191Z,0
2017-10-18T04:43:40.184Z,0
2017-10-18T04:44:40.160Z,0
2017-10-18T04:45:40.148Z,0
2017-10-18T04:46:39.812Z,0
2017-10-18T04:47:40.471Z,0
2017-10-18T04:48:40.109Z,0
2017-10-18T04:49:40.096Z,0
2017-10-18T04:50:40.089Z,0
2017-10-18T04:51:40.088Z,0
2017-10-18T04:52:40.069Z,0
2017-10-18T04:53:40.752Z,0
2017-10-18T04:54:39.701Z,0
2017-10-18T04:55:40.031Z,0
2017-10-18T04:56:40.019Z,0
2017-10-18T04:57:39.684Z,0
2017-10-18T04:58:39.687Z,0
2017-10-18T04:59:40.329Z,0
2017-10-18T05:00:40.003Z,0
2017-10-18T05:01:40.303Z,0
2017-10-18T05:02:39.952Z,0
2017-10-18T05:03:40.281Z,0
2017-10-18T05:04:39.947Z,0
2017-10-18T05:05:39.939Z,0
2017-10-18T05:06:40.244Z,0
2017-10-18T05:07:40.244Z,4
2017-10-18T05:08:39.541Z,4
2017-10-18T05:09:40.230Z,4
2017-10-18T05:10:40.227Z,0
2017-10-18T05:11:39.851Z,4
2017-10-18T05:12:39.496Z,4
2017-10-18T05:13:39.530Z,4
2017-10-18T05:14:39.475Z,4
2017-10-18T05:15:39.800Z,4
2017-10-18T05:16:39.795Z,8
2017-10-18T05:17:39.782Z,8
2017-10-18T05:18:39.767Z,12
2017-10-18T05:19:39.416Z,16
2017-10-18T05:20:39.766Z,16
2017-10-18T05:21:39.399Z,20
2017-10-18T05:22:39.723Z,20
2017-10-18T05:23:40.049Z,28
2017-10-18T05:24:39.697Z,36
2017-10-18T05:25:39.698Z,40
2017-10-18T05:26:39.681Z,44
2017-10-18T05:27:39.323Z,52
2017-10-18T05:28:40.007Z,60
2017-10-18T05:29:39.998Z,68
2017-10-18T05:30:39.289Z,72
2017-10-18T05:31:39.279Z,80
2017-10-18T05:32:39.606Z,88
2017-10-18T05:33:39.290Z,100
2017-10-18T05:34:39.584Z,104
2017-10-18T05:35:39.918Z,120
2017-10-18T05:36:39.220Z,128
2017-10-18T05:37:39.887Z,140
2017-10-18T05:38:40.230Z,148
2017-10-18T05:39:39.529Z,164
2017-10-18T05:40:39.541Z,176
2017-10-18T05:41:39.530Z,188
2017-10-18T05:42:39.496Z,204
2017-10-18T05:43:39.501Z,220
2017-10-18T05:44:39.468Z,236
2017-10-18T05:45:39.497Z,260
2017-10-18T05:46:39.107Z,284
2017-10-18T05:47:39.465Z,312
2017-10-18T05:48:39.430Z,344
2017-10-18T05:49:39.410Z,368
2017-10-18T05:50:39.081Z,404
2017-10-18T05:51:39.393Z,436
2017-10-18T05:52:39.395Z,468
2017-10-18T05:53:39.023Z,504
2017-10-18T05:54:39.018Z,540
2017-10-18T05:55:39.004Z,580
2017-10-18T05:56:39.348Z,620
2017-10-18T05:57:39.323Z,664
2017-10-18T05:58:39.663Z,712
2017-10-18T05:59:39.333Z,760
2017-10-18T06:00:39.344Z,808
2017-10-18T06:01:39.288Z,856
2017-10-18T06:02:39.264Z,904
2017-10-18T06:03:39.247Z,956
2017-10-18T06:04:39.236Z,1004
2017-10-18T06:05:39.230Z,1060
2017-10-18T06:06:39.557Z,1108
2017-10-18T06:07:39.219Z,1152
2017-10-18T06:08:39.192Z,1196
2017-10-18T06:09:39.181Z,1240
2017-10-18T06:10:38.830Z,1296
2017-10-18T06:11:39.498Z,1356
2017-10-18T06:12:39.165Z,1424
2017-10-18T06:13:38.795Z,1492
2017-10-18T06:14:39.125Z,1560
2017-10-18T06:15:39.458Z,1624
2017-10-18T06:16:39.107Z,1680
2017-10-18T06:17:39.453Z,1720
2017-10-18T06:18:38.740Z,1752
2017-10-18T06:19:38.740Z,1788
2017-10-18T06:20:39.056Z,1824
2017-10-18T06:21:39.046Z,1856
2017-10-18T06:22:38.724Z,1888
2017-10-18T06:23:38.683Z,1924
2017-10-18T06:24:39.016Z,1952
2017-10-18T06:25:39.003Z,1980
2017-10-18T06:26:38.685Z,2020
2017-10-18T06:27:38.980Z,2032
2017-10-18T06:28:38.990Z,2044
2017-10-18T06:29:38.959Z,2064
2017-10-18T06:30:38.947Z,2084
2017-10-18T06:31:38.935Z,2116
2017-10-18T06:32:38.925Z,2144
2017-10-18T06:33:38.925Z,2172
2017-10-18T06:34:38.903Z,2200
2017-10-18T06:35:38.894Z,2228
2017-10-18T06:36:38.883Z,2264
2017-10-18T06:37:38.532Z,2304
2017-10-18T06:38:38.880Z,2344
2017-10-18T06:39:38.849Z,2368
2017-10-18T06:40:38.502Z,2440
2017-10-18T06:41:38.834Z,2492
2017-10-18T06:42:39.158Z,2556
2017-10-18T06:43:38.813Z,2608
2017-10-18T06:44:38.463Z,2660
2017-10-18T06:45:38.796Z,2724
2017-10-18T06:46:39.148Z,2776
2017-10-18T06:47:39.112Z,2812
2017-10-18T06:48:39.121Z,2832
2017-10-18T06:49:38.746Z,2832
2017-10-18T06:50:38.737Z,2844
2017-10-18T06:51:38.387Z,2864
2017-10-18T06:52:38.402Z,2900
2017-10-18T06:53:38.368Z,2940
2017-10-18T06:54:39.037Z,2988
2017-10-18T06:55:39.411Z,3040
2017-10-18T06:56:39.035Z,3092
2017-10-18T06:57:38.672Z,3112
2017-10-18T06:58:38.317Z,3164
2017-10-18T06:59:38.666Z,3180
2017-10-18T07:00:38.639Z,3208
2017-10-18T07:01:38.983Z,3232
2017-10-18T07:02:38.621Z,3260
2017-10-18T07:03:38.980Z,3300
2017-10-18T07:04:39.285Z,3312
2017-10-18T07:05:38.245Z,3332
2017-10-18T07:06:38.579Z,3312
2017-10-18T07:07:38.569Z,3300
2017-10-18T07:08:38.563Z,3336
2017-10-18T07:09:38.217Z,3404
2017-10-18T07:10:39.554Z,3476
2017-10-18T07:11:38.530Z,3516
2017-10-18T07:12:38.865Z,3576
2017-10-18T07:13:38.185Z,3568
2017-10-18T07:14:39.186Z,3544
2017-10-18T07:15:38.158Z,3640
2017-10-18T07:16:38.492Z,3680
2017-10-18T07:17:38.481Z,3680
2017-10-18T07:18:38.474Z,3708
2017-10-18T07:19:38.465Z,3748
2017-10-18T07:20:38.112Z,3812
2017-10-18T07:21:38.104Z,3820
2017-10-18T07:22:38.106Z,3780
2017-10-18T07:23:38.766Z,3784
2017-10-18T07:24:38.427Z,3844
2017-10-18T07:25:38.431Z,3836
2017-10-18T07:26:38.759Z,3936
2017-10-18T07:27:39.093Z,3996
2017-10-18T07:28:38.739Z,4060
2017-10-18T07:29:39.054Z,4120
2017-10-18T07:30:38.391Z,4176
2017-10-18T07:31:38.360Z,4208
2017-10-18T07:32:38.353Z,4192
2017-10-18T07:33:37.999Z,4172
2017-10-18T07:34:38.366Z,4168
2017-10-18T07:35:37.984Z,4144
2017-10-18T07:36:37.976Z,4120
2017-10-18T07:37:37.972Z,4120
2017-10-18T07:38:38.311Z,4092
2017-10-18T07:39:39.136Z,4076
2017-10-18T07:40:38.317Z,4056
2017-10-18T07:41:38.617Z,4064
2017-10-18T07:42:38.611Z,4064
2017-10-18T07:43:37.921Z,4048
2017-10-18T07:44:38.253Z,4036
2017-10-18T07:45:38.247Z,4032
2017-10-18T07:46:38.591Z,4036
2017-10-18T07:47:38.579Z,4060
2017-10-18T07:48:38.257Z,4084
2017-10-18T07:49:38.225Z,4092
2017-10-18T07:50:38.207Z,4100
2017-10-18T07:51:38.201Z,4092
2017-10-18T07:52:38.880Z,4096
2017-10-18T07:53:38.534Z,4080
2017-10-18T07:54:37.841Z,4076
2017-10-18T07:55:37.831Z,4044
2017-10-18T07:56:37.824Z,4008
2017-10-18T07:57:38.498Z,3988
2017-10-18T07:58:38.522Z,3968
2017-10-18T07:59:37.808Z,3944
2017-10-18T08:00:38.155Z,3924
2017-10-18T08:01:38.136Z,3900
2017-10-18T08:02:37.786Z,3880
2017-10-18T08:03:38.474Z,3864
2017-10-18T08:04:38.112Z,3852
2017-10-18T08:05:37.776Z,3828
2017-10-18T08:06:38.098Z,3812
2017-10-18T08:07:38.490Z,3792
2017-10-18T08:08:37.769Z,3776
2017-10-18T08:09:38.078Z,3776
2017-10-18T08:10:37.727Z,3788
2017-10-18T08:11:38.065Z,3768
2017-10-18T08:12:38.074Z,3756
2017-10-18T08:13:37.748Z,3744
2017-10-18T08:14:37.704Z,3736
2017-10-18T08:15:38.075Z,3720
2017-10-18T08:16:38.033Z,3708
2017-10-18T08:17:38.050Z,3676
2017-10-18T08:18:38.017Z,3680
2017-10-18T08:19:38.365Z,3696
2017-10-18T08:20:38.041Z,3692
2017-10-18T08:21:37.998Z,3672
2017-10-18T08:22:38.044Z,3656
2017-10-18T08:23:37.992Z,3636
2017-10-18T08:24:37.980Z,3596
2017-10-18T08:25:37.634Z,3524
2017-10-18T08:26:38.308Z,3448
2017-10-18T08:27:38.309Z,3388
2017-10-18T08:28:37.616Z,3352
2017-10-18T08:29:37.962Z,3332
2017-10-18T08:30:38.637Z,3296
2017-10-18T08:31:37.603Z,3256
2017-10-18T08:32:37.930Z,3212
2017-10-18T08:33:37.960Z,3180
2017-10-18T08:34:38.605Z,3136
2017-10-18T08:35:37.575Z,3092
2017-10-18T08:36:37.923Z,3048
2017-10-18T08:37:37.924Z,3016
2017-10-18T08:38:37.903Z,3012
2017-10-18T08:39:37.890Z,2972
2017-10-18T08:40:37.888Z,2968
2017-10-18T08:41:37.878Z,2944
2017-10-18T08:42:37.891Z,2852
2017-10-18T08:43:38.203Z,2840
2017-10-18T08:44:37.858Z,2824
2017-10-18T08:45:38.231Z,2836
2017-10-18T08:46:37.869Z,2828
2017-10-18T08:47:37.504Z,2816
2017-10-18T08:48:37.838Z,2860
2017-10-18T08:49:37.507Z,2888
2017-10-18T08:50:37.825Z,2900
2017-10-18T08:51:38.165Z,2960
2017-10-18T08:52:37.477Z,3000
2017-10-18T08:53:38.158Z,3056
2017-10-18T08:54:37.485Z,3080
2017-10-18T08:55:37.801Z,3084
2017-10-18T08:56:37.454Z,3044
2017-10-18T08:57:38.135Z,3044
2017-10-18T08:58:37.471Z,3020
2017-10-18T08:59:37.454Z,2984
2017-10-18T09:00:38.120Z,2972
2017-10-18T09:01:37.429Z,2968
2017-10-18T09:02:37.439Z,3044
2017-10-18T09:03:37.438Z,3072
2017-10-18T09:04:37.749Z,3036
2017-10-18T09:05:37.769Z,3000
2017-10-18T09:06:38.092Z,3004
2017-10-18T09:07:37.415Z,3012
2017-10-18T09:08:37.754Z,3016
2017-10-18T09:09:37.384Z,3032
2017-10-18T09:10:37.742Z,3040
2017-10-18T09:11:38.090Z,3024
2017-10-18T09:12:37.711Z,3036
2017-10-18T09:13:37.366Z,3020
2017-10-18T09:14:37.360Z,3000
2017-10-18T09:15:37.358Z,3016
2017-10-18T09:16:38.033Z,3068
2017-10-18T09:17:37.343Z,3052
2017-10-18T09:18:37.690Z,3024
2017-10-18T09:19:37.673Z,2988
2017-10-18T09:20:37.688Z,2976
2017-10-18T09:21:38.008Z,2988
2017-10-18T09:22:37.661Z,3056
2017-10-18T09:23:37.656Z,3084
2017-10-18T09:24:37.651Z,3136
2017-10-18T09:25:37.309Z,3140
2017-10-18T09:26:37.988Z,3104
2017-10-18T09:27:37.636Z,3124
2017-10-18T09:28:37.290Z,3140
2017-10-18T09:29:37.631Z,3140
2017-10-18T09:30:37.976Z,3108
2017-10-18T09:31:37.617Z,3108
2017-10-18T09:32:37.610Z,3100
2017-10-18T09:33:37.950Z,3092
2017-10-18T09:34:37.626Z,3124
2017-10-18T09:35:38.289Z,3104
2017-10-18T09:36:37.612Z,3068
2017-10-18T09:37:37.936Z,3068
2017-10-18T09:38:37.585Z,3104
2017-10-18T09:39:37.946Z,3096
2017-10-18T09:40:38.265Z,3124
2017-10-18T09:41:37.624Z,3108
2017-10-18T09:42:37.907Z,3064
2017-10-18T09:43:37.225Z,3056
2017-10-18T09:44:37.564Z,3048
2017-10-18T09:45:37.215Z,2988
2017-10-18T09:46:37.913Z,2948
2017-10-18T09:47:37.887Z,3020
2017-10-18T09:48:37.543Z,3080
2017-10-18T09:49:37.907Z,3140
2017-10-18T09:50:37.882Z,3188
2017-10-18T09:51:37.895Z,3196
2017-10-18T09:52:37.530Z,3228
2017-10-18T09:53:37.525Z,3248
2017-10-18T09:54:37.908Z,3280
2017-10-18T09:55:38.215Z,3288
2017-10-18T09:56:37.178Z,3328
2017-10-18T09:57:37.527Z,3384
2017-10-18T09:58:37.163Z,3388
2017-10-18T09:59:37.505Z,3400
2017-10-18T10:00:37.519Z,3364
2017-10-18T10:01:37.505Z,3388
2017-10-18T10:02:37.868Z,3352
2017-10-18T10:03:38.163Z,3348
2017-10-18T10:04:37.481Z,3304
2017-10-18T10:05:37.479Z,3280
2017-10-18T10:06:37.495Z,3228
2017-10-18T10:07:38.151Z,3116
2017-10-18T10:08:37.126Z,3076
2017-10-18T10:09:37.470Z,3060
2017-10-18T10:10:37.808Z,3060
2017-10-18T10:11:37.138Z,3176
2017-10-18T10:12:37.485Z,3120
2017-10-18T10:13:37.463Z,3116
2017-10-18T10:14:37.445Z,3116
2017-10-18T10:15:37.102Z,3140
2017-10-18T10:16:37.447Z,3136
2017-10-18T10:17:37.820Z,3216
2017-10-18T10:18:37.446Z,3180
2017-10-18T10:19:37.088Z,3200
2017-10-18T10:20:37.441Z,3232
2017-10-18T10:21:37.763Z,3196
2017-10-18T10:22:37.442Z,3180
2017-10-18T10:23:37.420Z,3176
2017-10-18T10:24:37.072Z,3060
2017-10-18T10:25:37.099Z,3156
2017-10-18T10:26:37.078Z,3216
2017-10-18T10:27:37.410Z,3224
2017-10-18T10:28:37.425Z,3204
2017-10-18T10:29:37.400Z,3204
2017-10-18T10:30:37.056Z,3248
2017-10-18T10:31:37.410Z,3284
2017-10-18T10:32:37.389Z,3312
2017-10-18T10:33:37.067Z,3312
2017-10-18T10:34:37.381Z,3324
2017-10-18T10:35:37.397Z,3336
2017-10-18T10:36:37.730Z,3352
2017-10-18T10:37:37.744Z,3440
2017-10-18T10:38:37.377Z,3508
2017-10-18T10:39:37.029Z,3612
2017-10-18T10:40:37.055Z,3664
2017-10-18T10:41:37.361Z,3736
2017-10-18T10:42:37.360Z,3864
2017-10-18T10:43:37.018Z,4012
2017-10-18T10:44:37.375Z,4092
2017-10-18T10:45:37.712Z,4140
2017-10-18T10:46:37.013Z,4216
2017-10-18T10:47:37.360Z,4284
2017-10-18T10:48:37.343Z,4400
2017-10-18T10:49:37.007Z,4500
2017-10-18T10:50:37.682Z,4612
2017-10-18T10:51:37.335Z,4676
2017-10-18T10:52:37.332Z,4688
2017-10-18T10:53:37.332Z,4816
2017-10-18T10:54:36.986Z,4884
2017-10-18T10:55:37.342Z,4968
2017-10-18T10:56:36.983Z,5020
2017-10-18T10:57:37.685Z,5032
2017-10-18T10:58:37.357Z,5092
2017-10-18T10:59:37.316Z,5208
2017-10-18T11:00:37.662Z,5276
2017-10-18T11:01:37.318Z,5424
2017-10-18T11:02:36.983Z,5472
2017-10-18T11:03:36.975Z,5544
2017-10-18T11:04:37.306Z,5620
2017-10-18T11:05:37.642Z,5604
2017-10-18T11:06:36.977Z,5472
2017-10-18T11:07:37.297Z,5316
2017-10-18T11:08:36.970Z,5164
2017-10-18T11:09:36.957Z,5004
2017-10-18T11:10:37.291Z,4900
2017-10-18T11:11:36.969Z,4864
2017-10-18T11:12:37.289Z,4852
2017-10-18T11:13:37.645Z,4920
2017-10-18T11:14:37.288Z,5004
2017-10-18T11:15:36.940Z,4988
2017-10-18T11:16:37.277Z,5128
2017-10-18T11:17:36.937Z,5204
2017-10-18T11:18:37.614Z,5224
2017-10-18T11:19:37.274Z,5240
2017-10-18T11:20:36.939Z,5212
2017-10-18T11:21:37.611Z,5176
2017-10-18T11:22:37.633Z,5096
2017-10-18T11:23:36.926Z,5008
2017-10-18T11:24:36.924Z,4884
2017-10-18T11:25:37.608Z,4748
2017-10-18T11:26:37.603Z,4648
2017-10-18T11:27:37.260Z,4544
2017-10-18T11:28:37.270Z,4440
2017-10-18T11:29:37.601Z,4304
2017-10-18T11:30:36.920Z,4172
2017-10-18T11:31:37.602Z,4028
2017-10-18T11:32:36.912Z,3912
2017-10-18T11:33:37.455Z,3788
2017-10-18T11:34:37.588Z,3728
2017-10-18T11:35:36.906Z,3652
2017-10-18T11:36:37.247Z,3580
2017-10-18T11:37:37.249Z,3560
2017-10-18T11:38:37.243Z,3552
2017-10-18T11:39:37.267Z,3596
2017-10-18T11:40:37.580Z,3624
2017-10-18T11:41:36.900Z,3668
2017-10-18T11:42:38.199Z,3692
2017-10-18T11:43:37.241Z,3744
2017-10-18T11:44:37.277Z,3780
2017-10-18T11:45:37.240Z,3792
2017-10-18T11:46:37.585Z,3844
2017-10-18T11:47:37.578Z,3868
2017-10-18T11:48:37.245Z,3836
2017-10-18T11:49:37.236Z,3856
2017-10-18T11:50:37.264Z,3912
2017-10-18T11:51:37.971Z,3948
2017-10-18T11:52:37.581Z,4020
2017-10-18T11:53:36.882Z,4112
2017-10-18T11:54:37.569Z,4180
2017-10-18T11:55:37.219Z,4212
2017-10-18T11:56:37.575Z,4276
2017-10-18T11:57:37.572Z,4380
2017-10-18T11:58:37.237Z,4492
2017-10-18T11:59:36.899Z,4564
2017-10-18T12:00:36.871Z,4620
2017-10-18T12:01:37.210Z,4628
2017-10-18T12:02:37.217Z,4680
2017-10-18T12:03:37.591Z,4704
2017-10-18T12:04:37.207Z,4740
2017-10-18T12:05:37.206Z,4804
2017-10-18T12:06:37.557Z,4836
2017-10-18T12:07:37.536Z,4900
2017-10-18T12:08:37.539Z,4984
2017-10-18T12:09:37.199Z,5064
2017-10-18T12:10:37.204Z,5124
2017-10-18T12:11:36.849Z,5128
2017-10-18T12:12:37.189Z,5176
2017-10-18T12:13:36.845Z,5228
2017-10-18T12:14:37.185Z,5324
2017-10-18T12:15:37.202Z,5436
2017-10-18T12:16:37.525Z,5492
2017-10-18T12:17:36.851Z,5500
2017-10-18T12:18:37.514Z,5436
2017-10-18T12:19:36.840Z,5360
2017-10-18T12:20:36.836Z,5240
2017-10-18T12:21:37.516Z,5104
2017-10-18T12:22:37.173Z,4976
2017-10-18T12:23:37.190Z,4836
2017-10-18T12:24:37.174Z,4696
2017-10-18T12:25:37.203Z,4584
2017-10-18T12:26:37.175Z,4492
2017-10-18T12:27:37.191Z,4436
2017-10-18T12:28:37.165Z,4368
2017-10-18T12:29:37.182Z,4300
2017-10-18T12:30:37.159Z,4288
2017-10-18T12:31:37.161Z,4180
2017-10-18T12:32:36.819Z,4268
2017-10-18T12:33:37.159Z,4312
2017-10-18T12:34:36.812Z,4316
2017-10-18T12:35:37.152Z,4332
2017-10-18T12:36:37.490Z,4376
2017-10-18T12:37:37.151Z,4420
2017-10-18T12:38:36.816Z,4488
2017-10-18T12:39:37.157Z,4564
2017-10-18T12:40:37.486Z,4660
2017-10-18T12:41:37.505Z,4756
2017-10-18T12:42:36.800Z,4832
2017-10-18T12:43:37.142Z,4864
2017-10-18T12:44:37.174Z,4968
2017-10-18T12:45:37.497Z,5004
2017-10-18T12:46:37.142Z,5004
2017-10-18T12:47:37.476Z,4988
2017-10-18T12:48:37.524Z,5004
2017-10-18T12:49:37.827Z,4944
2017-10-18T12:50:36.788Z,4940
2017-10-18T12:51:36.787Z,4976
2017-10-18T12:52:36.789Z,5072
2017-10-18T12:53:37.123Z,5032
2017-10-18T12:54:37.297Z,4928
2017-10-18T12:55:37.209Z,4860
2017-10-18T12:56:37.119Z,4808
2017-10-18T12:57:37.490Z,4880
2017-10-18T12:58:37.471Z,5032
2017-10-18T12:59:37.114Z,5172
2017-10-18T13:00:37.483Z,5296
2017-10-18T13:01:37.448Z,5352
2017-10-18T13:02:37.459Z,5372
2017-10-18T13:03:37.126Z,5392
2017-10-18T13:04:37.102Z,5376
2017-10-18T13:05:37.445Z,5312
2017-10-18T13:06:37.441Z,5192
2017-10-18T13:07:37.473Z,5108
2017-10-18T13:08:36.771Z,5020
2017-10-18T13:09:37.102Z,4936
2017-10-18T13:10:37.103Z,4916
2017-10-18T13:11:36.751Z,4868
2017-10-18T13:12:37.784Z,4852
2017-10-18T13:13:36.749Z,4852
2017-10-18T13:14:37.002Z,4872
2017-10-18T13:15:37.090Z,4924
2017-10-18T13:16:37.086Z,5024
2017-10-18T13:17:37.475Z,5172
2017-10-18T13:18:36.736Z,5288
2017-10-18T13:19:37.084Z,5372
2017-10-18T13:20:37.103Z,5392
2017-10-18T13:21:37.072Z,5360
2017-10-18T13:22:36.756Z,5412
2017-10-18T13:23:37.428Z,5472
2017-10-18T13:24:37.077Z,5484
2017-10-18T13:25:37.069Z,5524
2017-10-18T13:26:36.730Z,5588
2017-10-18T13:27:37.088Z,5688
2017-10-18T13:28:37.747Z,5788
2017-10-18T13:29:37.435Z,5884
2017-10-18T13:30:37.402Z,5960
2017-10-18T13:31:37.101Z,6024
2017-10-18T13:32:37.058Z,6000
2017-10-18T13:33:37.395Z,5940
2017-10-18T13:34:36.712Z,5872
2017-10-18T13:35:37.052Z,5808
2017-10-18T13:36:37.072Z,5760
2017-10-18T13:37:37.746Z,5740
2017-10-18T13:38:36.748Z,5732
2017-10-18T13:39:36.740Z,5716
2017-10-18T13:40:36.864Z,5704
2017-10-18T13:41:37.394Z,5708
2017-10-18T13:42:37.720Z,5744
2017-10-18T13:43:36.711Z,5756
2017-10-18T13:44:37.053Z,5736
2017-10-18T13:45:37.041Z,5716
2017-10-18T13:46:37.376Z,5704
2017-10-18T13:47:37.382Z,5736
2017-10-18T13:48:37.028Z,5744
2017-10-18T13:49:37.041Z,5732
2017-10-18T13:50:37.028Z,5708
2017-10-18T13:51:36.706Z,5672
2017-10-18T13:52:37.027Z,5616